createdAt,value
2022-11-01T00:01:57.960Z,96462.52
2022-11-01T00:04:26.079Z,96461.45
2022-11-01T00:06:54.074Z,96459.99
2022-11-01T00:09:22.001Z,96460.07
2022-11-01T00:11:49.918Z,96457.23
2022-11-01T00:14:18.909Z,96456.80
2022-11-01T00:16:47.227Z,96457.84
2022-11-01T00:19:15.181Z,96452.93
2022-11-01T00:21:43.664Z,96448.84
2022-11-01T00:24:11.584Z,96442.93
2022-11-01T00:26:39.622Z,96438.02
2022-11-01T00:29:07.544Z,96438.40
2022-11-01T00:31:35.301Z,96435.07
2022-11-01T00:34:05.807Z,96435.89
2022-11-01T00:36:34.635Z,96433.25
2022-11-01T00:39:02.951Z,96436.09
2022-11-01T00:41:30.885Z,96435.07
2022-11-01T00:43:58.883Z,96432.63
2022-11-01T00:46:26.766Z,96434.86
2022-11-01T00:48:54.663Z,96433.89
2022-11-01T00:51:22.664Z,96435.21
2022-11-01T00:53:50.559Z,96434.08
2022-11-01T00:56:18.425Z,96435.20
2022-11-01T00:58:46.277Z,96433.11
2022-11-01T01:01:14.413Z,96432.84
2022-11-01T01:03:42.525Z,96433.27
2022-11-01T01:06:10.437Z,96429.11
2022-11-01T01:08:38.459Z,96424.12
2022-11-01T01:11:06.485Z,96422.45
2022-11-01T01:13:34.454Z,96415.20
2022-11-01T01:16:07.204Z,96413.30
2022-11-01T01:18:35.158Z,96408.06
2022-11-01T01:21:03.963Z,96405.46
2022-11-01T01:23:32.497Z,96400.21
2022-11-01T01:26:00.369Z,96400.09
2022-11-01T01:28:28.435Z,96397.50
2022-11-01T01:30:56.316Z,96392.99
2022-11-01T01:33:24.214Z,96388.70
2022-11-01T01:35:52.064Z,96381.58
2022-11-01T01:38:19.972Z,96377.87
2022-11-01T01:40:47.862Z,96372.66
2022-11-01T01:43:15.881Z,96375.55
2022-11-01T01:45:43.952Z,96378.09
2022-11-01T01:48:23.262Z,96379.83
2022-11-01T01:50:55.872Z,96378.54
2022-11-01T01:53:29.297Z,96375.23
2022-11-01T01:56:00.993Z,96368.38
2022-11-01T01:58:35.240Z,96362.96
2022-11-01T02:01:03.156Z,96364.32
2022-11-01T02:03:32.494Z,96363.68
2022-11-01T02:06:08.190Z,96363.56
2022-11-01T02:08:37.238Z,96357.35
2022-11-01T02:11:06.531Z,96358.74
2022-11-01T02:13:35.020Z,96363.93
2022-11-01T02:16:15.098Z,96363.90
2022-11-01T02:18:42.928Z,96357.02
2022-11-01T02:21:23.045Z,96354.21
2022-11-01T02:23:51.470Z,96350.55
2022-11-01T02:26:28.493Z,96350.84
2022-11-01T02:29:27.706Z,96348.37
2022-11-01T02:32:14.274Z,96347.30
2022-11-01T02:34:45.132Z,96351.50
2022-11-01T02:37:12.980Z,96355.48
2022-11-01T02:39:43.630Z,96357.73
2022-11-01T02:42:15.313Z,96355.75
2022-11-01T02:44:47.128Z,96350.86
2022-11-01T02:47:15.165Z,96354.73
2022-11-01T02:49:47.752Z,96354.44
2022-11-01T02:52:18.214Z,96353.39
2022-11-01T02:54:49.857Z,96350.26
2022-11-01T02:57:17.889Z,96352.04
2022-11-01T02:59:46.861Z,96353.88
2022-11-01T03:02:20.106Z,96348.80
2022-11-01T03:04:48.710Z,96345.83
2022-11-01T03:07:17.141Z,96343.52
2022-11-01T03:09:45.200Z,96345.02
2022-11-01T03:12:16.600Z,96341.86
2022-11-01T03:14:44.527Z,96340.33
2022-11-01T03:17:15.414Z,96340.68
2022-11-01T03:20:03.587Z,96336.53
2022-11-01T03:22:55.773Z,96330.88
2022-11-01T03:25:39.839Z,96328.38
2022-11-01T03:28:08.757Z,96327.08
2022-11-01T03:30:37.530Z,96324.60
2022-11-01T03:33:05.892Z,96325.98
2022-11-01T03:35:37.066Z,96326.83
2022-11-01T03:38:07.216Z,96326.69
2022-11-01T03:40:36.073Z,96326.66
2022-11-01T03:43:06.801Z,96330.36
2022-11-01T03:45:36.900Z,96336.63
2022-11-01T03:48:06.023Z,96342.25
2022-11-01T03:50:34.204Z,96344.63
2022-11-01T03:53:02.026Z,96343.66
2022-11-01T03:55:29.821Z,96342.65
2022-11-01T03:57:58.833Z,96335.89
2022-11-01T04:00:28.712Z,96334.14
2022-11-01T04:02:57.107Z,96336.02
2022-11-01T04:05:26.239Z,96335.23
2022-11-01T04:07:54.648Z,96334.25
2022-11-01T04:10:23.889Z,96331.90
2022-11-01T04:12:52.461Z,96332.46
2022-11-01T04:15:40.311Z,96330.75
2022-11-01T04:18:36.193Z,96331.50
2022-11-01T04:21:06.586Z,96326.15
2022-11-01T04:23:34.567Z,96325.35
2022-11-01T04:26:02.936Z,96321.66
2022-11-01T04:28:30.843Z,96318.92
2022-11-01T04:30:59.214Z,96311.50
2022-11-01T04:33:27.038Z,96317.95
2022-11-01T04:35:54.959Z,96314.52
2022-11-01T04:38:22.882Z,96311.52
2022-11-01T04:40:50.945Z,96305.36
2022-11-01T04:43:18.851Z,96308.79
2022-11-01T04:45:53.456Z,96312.36
2022-11-01T04:48:21.323Z,96312.52
2022-11-01T04:50:49.212Z,96305.98
2022-11-01T04:53:17.117Z,96300.77
2022-11-01T04:55:44.938Z,96297.80
2022-11-01T04:58:14.522Z,96291.63
2022-11-01T05:00:44.109Z,96292.96
2022-11-01T05:03:12.675Z,96293.05
2022-11-01T05:05:40.526Z,96293.77
2022-11-01T05:08:09.616Z,96286.96
2022-11-01T05:10:38.852Z,96290.95
2022-11-01T05:13:06.814Z,96293.04
2022-11-01T05:15:39.787Z,96291.20
2022-11-01T05:18:11.856Z,96293.13
2022-11-01T05:20:39.745Z,96293.28
2022-11-01T05:23:09.130Z,96296.92
2022-11-01T05:25:38.315Z,96297.90
2022-11-01T05:28:12.455Z,96296.19
2022-11-01T05:30:41.216Z,96291.61
2022-11-01T05:33:10.672Z,96292.23
2022-11-01T05:35:38.647Z,96286.67
2022-11-01T05:38:06.935Z,96290.62
2022-11-01T05:40:34.945Z,96291.30
2022-11-01T05:43:03.174Z,96290.77
2022-11-01T05:45:31.297Z,96291.17
2022-11-01T05:48:03.453Z,96290.58
2022-11-01T05:50:31.835Z,96287.62
2022-11-01T05:53:05.321Z,96287.42
2022-11-01T05:55:33.354Z,96285.19
2022-11-01T05:58:01.423Z,96281.75
2022-11-01T06:00:29.357Z,96280.33
2022-11-01T06:02:58.384Z,96284.73
2022-11-01T06:05:26.788Z,96286.42
2022-11-01T06:07:54.761Z,96290.27
2022-11-01T06:10:22.705Z,96289.50
2022-11-01T06:12:50.590Z,96287.55
2022-11-01T06:15:18.526Z,96290.41
2022-11-01T06:17:46.504Z,96288.27
2022-11-01T06:20:14.283Z,96290.71
2022-11-01T06:22:42.239Z,96290.82
2022-11-01T06:25:10.190Z,96289.68
2022-11-01T06:27:38.389Z,96292.78
2022-11-01T06:30:06.780Z,96290.77
2022-11-01T06:32:34.872Z,96292.41
2022-11-01T06:35:02.969Z,96295.58
2022-11-01T06:37:31.121Z,96304.23
2022-11-01T06:39:59.078Z,96316.30
2022-11-01T06:42:27.288Z,96315.95
2022-11-01T06:45:01.691Z,96312.56
2022-11-01T06:47:29.733Z,96309.95
2022-11-01T06:49:57.684Z,96316.69
2022-11-01T06:52:25.568Z,96316.79
2022-11-01T06:54:53.616Z,96320.48
2022-11-01T06:57:21.498Z,96322.97
2022-11-01T06:59:49.582Z,96323.11
2022-11-01T07:02:19.797Z,96323.10
2022-11-01T07:04:48.239Z,96318.71
2022-11-01T07:07:16.192Z,96319.08
2022-11-01T07:09:44.288Z,96316.70
2022-11-01T07:12:12.191Z,96319.56
2022-11-01T07:14:40.293Z,96319.28
2022-11-01T07:17:08.351Z,96316.77
2022-11-01T07:19:36.477Z,96313.09
2022-11-01T07:22:04.760Z,96309.52
2022-11-01T07:24:32.686Z,96303.38
2022-11-01T07:27:00.908Z,96306.39
2022-11-01T07:29:28.891Z,96311.15
2022-11-01T07:31:56.882Z,96315.48
2022-11-01T07:34:24.892Z,96320.83
2022-11-01T07:36:53.359Z,96322.06
2022-11-01T07:39:21.426Z,96316.33
2022-11-01T07:41:51.594Z,96312.21
2022-11-01T07:44:19.585Z,96303.95
2022-11-01T07:46:47.753Z,96299.95
2022-11-01T07:49:15.684Z,96297.45
2022-11-01T07:51:43.711Z,96294.77
2022-11-01T07:54:11.648Z,96304.62
2022-11-01T07:56:39.726Z,96311.95
2022-11-01T07:59:08.730Z,96320.55
2022-11-01T08:01:36.876Z,96314.14
2022-11-01T08:04:05.385Z,96311.90
2022-11-01T08:06:33.466Z,96316.95
2022-11-01T08:09:01.623Z,96323.55
2022-11-01T08:11:29.658Z,96318.39
2022-11-01T08:14:02.820Z,96315.69
2022-11-01T08:16:34.281Z,96308.84
2022-11-01T08:19:02.672Z,96310.73
2022-11-01T08:21:31.422Z,96312.14
2022-11-01T08:23:59.371Z,96315.86
2022-11-01T08:26:27.777Z,96309.65
2022-11-01T08:28:57.971Z,96306.22
2022-11-01T08:31:25.949Z,96301.77
2022-11-01T08:33:54.393Z,96296.89
2022-11-01T08:36:22.433Z,96297.02
2022-11-01T08:38:50.443Z,96295.70
2022-11-01T08:41:18.503Z,96294.75
2022-11-01T08:43:46.676Z,96291.06
2022-11-01T08:46:14.591Z,96294.50
2022-11-01T08:48:42.539Z,96297.38
2022-11-01T08:51:11.039Z,96298.75
2022-11-01T08:53:38.988Z,96306.02
2022-11-01T08:56:07.182Z,96309.55
2022-11-01T08:58:35.160Z,96309.96
2022-11-01T09:01:05.745Z,96310.80
2022-11-01T09:03:33.669Z,96312.52
2022-11-01T09:06:01.610Z,96312.30
2022-11-01T09:08:29.574Z,96311.13
2022-11-01T09:10:58.198Z,96314.42
2022-11-01T09:13:26.259Z,96315.92
2022-11-01T09:15:55.357Z,96316.63
2022-11-01T09:18:25.253Z,96312.48
2022-11-01T09:20:53.679Z,96312.04
2022-11-01T09:23:22.166Z,96311.98
2022-11-01T09:25:50.043Z,96313.42
2022-11-01T09:28:18.008Z,96318.89
2022-11-01T09:30:55.045Z,96315.44
2022-11-01T09:33:30.054Z,96317.97
2022-11-01T09:35:59.706Z,96322.42
2022-11-01T09:38:28.324Z,96321.04
2022-11-01T09:41:02.440Z,96322.48
2022-11-01T09:43:32.882Z,96321.14
2022-11-01T09:46:02.006Z,96313.92
2022-11-01T09:48:31.753Z,96309.91
2022-11-01T09:51:02.855Z,96299.81
2022-11-01T09:53:31.040Z,96301.10
2022-11-01T09:56:10.420Z,96302.15
2022-11-01T09:58:59.195Z,96309.13
2022-11-01T10:01:42.581Z,96310.84
2022-11-01T10:04:20.357Z,96312.54
2022-11-01T10:06:58.736Z,96313.59
2022-11-01T10:09:45.430Z,96314.57
2022-11-01T10:12:33.673Z,96318.17
2022-11-01T10:15:04.769Z,96323.52
2022-11-01T10:17:32.715Z,96324.71
2022-11-01T10:20:01.116Z,96317.95
2022-11-01T10:22:31.257Z,96318.54
2022-11-01T10:25:02.880Z,96323.77
2022-11-01T10:27:34.602Z,96321.84
2022-11-01T10:30:13.495Z,96322.95
2022-11-01T10:32:41.407Z,96328.14
2022-11-01T10:35:22.926Z,96325.02
2022-11-01T10:38:11.127Z,96328.08
2022-11-01T10:40:43.604Z,96327.45
2022-11-01T10:43:14.080Z,96322.24
2022-11-01T10:45:47.583Z,96323.15
2022-11-01T10:48:21.869Z,96321.77
2022-11-01T10:50:50.552Z,96318.09
2022-11-01T10:53:22.039Z,96311.38
2022-11-01T10:55:57.772Z,96304.70
2022-11-01T10:58:28.314Z,96304.66
2022-11-01T11:00:56.379Z,96299.40
2022-11-01T11:03:26.335Z,96297.79
2022-11-01T11:05:55.530Z,96289.42
2022-11-01T11:08:24.609Z,96290.81
2022-11-01T11:10:52.757Z,96293.60
2022-11-01T11:13:22.015Z,96292.61
2022-11-01T11:15:50.279Z,96294.70
2022-11-01T11:18:27.385Z,96291.43
2022-11-01T11:20:58.777Z,96286.95
2022-11-01T11:23:27.830Z,96286.13
2022-11-01T11:26:02.612Z,96286.76
2022-11-01T11:28:34.543Z,96284.67
2022-11-01T11:31:13.748Z,96282.45
2022-11-01T11:34:07.779Z,96282.11
2022-11-01T11:36:38.301Z,96283.31
2022-11-01T11:39:07.001Z,96285.10
2022-11-01T11:41:39.808Z,96287.15
2022-11-01T11:44:27.765Z,96290.38
2022-11-01T11:46:56.709Z,96284.83
2022-11-01T11:49:28.139Z,96286.31
2022-11-01T11:51:56.099Z,96289.88
2022-11-01T11:54:34.459Z,96289.95
2022-11-01T11:57:18.130Z,96289.75
2022-11-01T11:59:51.793Z,96286.67
2022-11-01T12:02:25.263Z,96283.68
2022-11-01T12:05:01.715Z,96280.95
2022-11-01T12:07:39.806Z,96274.52
2022-11-01T12:10:28.138Z,96281.12
2022-11-01T12:12:57.005Z,96273.90
2022-11-01T12:15:27.089Z,96280.29
2022-11-01T12:17:55.400Z,96283.75
2022-11-01T12:20:24.633Z,96275.54
2022-11-01T12:23:01.719Z,96273.41
2022-11-01T12:25:29.861Z,96274.46
2022-11-01T12:28:00.037Z,96276.10
2022-11-01T12:30:30.310Z,96273.91
2022-11-01T12:33:02.788Z,96274.48
2022-11-01T12:35:30.764Z,96280.65
2022-11-01T12:37:58.639Z,96278.72
2022-11-01T12:40:36.166Z,96280.13
2022-11-01T12:43:12.999Z,96279.23
2022-11-01T12:45:47.391Z,96279.67
2022-11-01T12:48:20.386Z,96281.60
2022-11-01T12:51:13.438Z,96285.21
2022-11-01T12:53:59.605Z,96288.05
2022-11-01T12:56:28.086Z,96289.05
2022-11-01T12:58:56.712Z,96286.69
2022-11-01T13:01:31.564Z,96286.11
2022-11-01T13:04:18.497Z,96285.13
2022-11-01T13:07:05.138Z,96292.41
2022-11-01T13:09:33.037Z,96293.55
2022-11-01T13:12:04.899Z,96297.89
2022-11-01T13:14:32.922Z,96298.96
2022-11-01T13:17:30.398Z,96301.73
2022-11-01T13:20:07.402Z,96306.08
2022-11-01T13:22:41.565Z,96303.30
2022-11-01T13:25:20.271Z,96301.73
2022-11-01T13:28:14.077Z,96304.36
2022-11-01T13:30:47.187Z,96301.48
2022-11-01T13:33:19.444Z,96301.40
2022-11-01T13:36:03.323Z,96299.02
2022-11-01T13:39:06.581Z,96303.51
2022-11-01T13:41:41.487Z,96301.91
2022-11-01T13:44:16.942Z,96301.76
2022-11-01T13:46:53.739Z,96303.73
2022-11-01T13:49:40.875Z,96297.11
2022-11-01T13:52:19.621Z,96303.27
2022-11-01T13:54:54.000Z,96310.92
2022-11-01T13:57:26.231Z,96308.61
2022-11-01T14:00:09.793Z,96306.96
2022-11-01T14:02:51.671Z,96309.77
2022-11-01T14:05:19.735Z,96303.83
2022-11-01T14:07:47.914Z,96311.86
2022-11-01T14:10:19.361Z,96311.04
2022-11-01T14:13:07.332Z,96313.77
2022-11-01T14:15:39.715Z,96309.73
2022-11-01T14:18:10.878Z,96312.38
2022-11-01T14:20:38.668Z,96312.10
2022-11-01T14:23:25.702Z,96317.38
2022-11-01T14:26:12.419Z,96320.73
2022-11-01T14:28:43.665Z,96323.44
2022-11-01T14:31:15.891Z,96325.83
2022-11-01T14:33:44.705Z,96334.77
2022-11-01T14:36:13.204Z,96333.98
2022-11-01T14:38:45.471Z,96334.04
2022-11-01T14:41:14.384Z,96336.55
2022-11-01T14:43:44.324Z,96336.95
2022-11-01T14:46:14.744Z,96340.31
2022-11-01T14:48:52.000Z,96341.77
2022-11-01T14:51:24.058Z,96345.30
2022-11-01T14:54:21.417Z,96344.04
2022-11-01T14:56:50.863Z,96344.66
2022-11-01T14:59:19.449Z,96343.54
2022-11-01T15:01:51.779Z,96345.08
2022-11-01T15:04:23.736Z,96344.06
2022-11-01T15:06:54.592Z,96345.64
2022-11-01T15:09:24.103Z,96344.65
2022-11-01T15:11:54.079Z,96346.55
2022-11-01T15:14:35.136Z,96347.02
2022-11-01T15:17:03.549Z,96350.63
2022-11-01T15:19:35.733Z,96352.08
2022-11-01T15:22:06.090Z,96358.25
2022-11-01T15:24:34.949Z,96357.92
2022-11-01T15:27:07.688Z,96359.98
2022-11-01T15:29:36.480Z,96363.89
2022-11-01T15:32:05.536Z,96361.61
2022-11-01T15:34:36.927Z,96360.64
2022-11-01T15:37:18.732Z,96363.22
2022-11-01T15:39:46.687Z,96361.60
2022-11-01T15:42:20.736Z,96365.00
2022-11-01T15:44:48.764Z,96370.02
2022-11-01T15:47:18.536Z,96371.90
2022-11-01T15:49:58.524Z,96371.86
2022-11-01T15:52:45.655Z,96374.98
2022-11-01T15:55:28.985Z,96377.19
2022-11-01T15:57:59.861Z,96376.73
2022-11-01T16:00:33.065Z,96379.69
2022-11-01T16:03:05.610Z,96380.15
2022-11-01T16:05:36.296Z,96379.72
2022-11-01T16:08:08.647Z,96380.36
2022-11-01T16:10:36.816Z,96382.79
2022-11-01T16:13:05.812Z,96380.77
2022-11-01T16:15:34.315Z,96385.80
2022-11-01T16:18:14.469Z,96387.91
2022-11-01T16:20:42.418Z,96390.02
2022-11-01T16:23:24.913Z,96396.45
2022-11-01T16:26:03.463Z,96392.98
2022-11-01T16:28:37.167Z,96398.05
2022-11-01T16:31:17.181Z,96394.84
2022-11-01T16:33:46.115Z,96397.70
2022-11-01T16:36:20.297Z,96397.96
2022-11-01T16:38:49.241Z,96398.31
2022-11-01T16:41:21.623Z,96396.39
2022-11-01T16:43:53.140Z,96395.27
2022-11-01T16:46:22.016Z,96408.02
2022-11-01T16:48:52.848Z,96413.76
2022-11-01T16:51:22.243Z,96417.44
2022-11-01T16:53:50.691Z,96416.85
2022-11-01T16:56:38.106Z,96418.14
2022-11-01T16:59:29.556Z,96422.35
2022-11-01T17:01:58.716Z,96417.52
2022-11-01T17:04:27.757Z,96427.23
2022-11-01T17:06:58.739Z,96431.29
2022-11-01T17:09:28.266Z,96428.55
2022-11-01T17:11:56.398Z,96426.63
2022-11-01T17:14:24.730Z,96429.44
2022-11-01T17:16:52.905Z,96429.77
2022-11-01T17:19:23.339Z,96426.23
2022-11-01T17:21:52.605Z,96434.67
2022-11-01T17:24:22.162Z,96431.52
2022-11-01T17:26:51.533Z,96434.98
2022-11-01T17:29:19.806Z,96439.05
2022-11-01T17:31:48.259Z,96438.23
2022-11-01T17:34:16.584Z,96441.14
2022-11-01T17:36:47.591Z,96445.82
2022-11-01T17:39:15.592Z,96445.44
2022-11-01T17:41:43.603Z,96444.13
2022-11-01T17:44:12.058Z,96445.44
2022-11-01T17:46:40.216Z,96448.21
2022-11-01T17:49:10.361Z,96450.88
2022-11-01T17:51:39.580Z,96454.17
2022-11-01T17:54:08.925Z,96455.61
2022-11-01T17:56:36.867Z,96459.95
2022-11-01T17:59:04.952Z,96458.59
2022-11-01T18:01:33.058Z,96466.95
2022-11-01T18:04:01.121Z,96465.20
2022-11-01T18:06:29.085Z,96464.40
2022-11-01T18:08:57.397Z,96466.59
2022-11-01T18:11:31.068Z,96470.13
2022-11-01T18:14:06.681Z,96467.59
2022-11-01T18:16:34.728Z,96472.56
2022-11-01T18:19:26.925Z,96475.41
2022-11-01T18:21:54.819Z,96474.86
2022-11-01T18:24:30.408Z,96466.64
2022-11-01T18:26:58.659Z,96472.15
2022-11-01T18:29:26.545Z,96468.91
2022-11-01T18:32:03.616Z,96466.80
2022-11-01T18:34:40.491Z,96466.73
2022-11-01T18:37:34.910Z,96470.33
2022-11-01T18:40:23.308Z,96478.63
2022-11-01T18:42:52.592Z,96479.59
2022-11-01T18:45:31.777Z,96481.74
2022-11-01T18:48:05.499Z,96484.45
2022-11-01T18:50:33.753Z,96479.63
2022-11-01T18:53:07.456Z,96482.84
2022-11-01T18:55:35.301Z,96486.13
2022-11-01T18:58:11.432Z,96488.98
2022-11-01T19:00:39.310Z,96491.55
2022-11-01T19:03:14.861Z,96493.99
2022-11-01T19:05:42.883Z,96495.05
2022-11-01T19:08:22.158Z,96493.89
2022-11-01T19:10:51.133Z,96490.27
2022-11-01T19:13:37.622Z,96494.63
2022-11-01T19:16:06.135Z,96497.19
2022-11-01T19:18:36.125Z,96502.91
2022-11-01T19:21:15.071Z,96503.76
2022-11-01T19:23:46.274Z,96504.61
2022-11-01T19:26:20.392Z,96504.48
2022-11-01T19:28:52.235Z,96504.77
2022-11-01T19:31:21.309Z,96507.85
2022-11-01T19:33:55.609Z,96507.66
2022-11-01T19:36:25.433Z,96509.24
2022-11-01T19:38:53.678Z,96511.84
2022-11-01T19:41:24.030Z,96511.80
2022-11-01T19:43:52.303Z,96517.59
2022-11-01T19:46:21.030Z,96519.10
2022-11-01T19:48:49.062Z,96525.92
2022-11-01T19:51:19.827Z,96523.95
2022-11-01T19:53:47.910Z,96526.45
2022-11-01T19:56:18.589Z,96527.02
2022-11-01T19:59:00.506Z,96527.94
2022-11-01T20:01:42.099Z,96529.08
2022-11-01T20:04:27.016Z,96527.42
2022-11-01T20:07:01.907Z,96528.88
2022-11-01T20:09:31.106Z,96528.89
2022-11-01T20:11:59.011Z,96534.40
2022-11-01T20:14:27.725Z,96540.48
2022-11-01T20:16:55.633Z,96543.98
2022-11-01T20:19:23.468Z,96545.42
2022-11-01T20:21:51.399Z,96549.64
2022-11-01T20:24:19.432Z,96551.27
2022-11-01T20:26:47.528Z,96555.68
2022-11-01T20:29:15.413Z,96553.26
2022-11-01T20:31:43.901Z,96554.59
2022-11-01T20:34:11.787Z,96556.03
2022-11-01T20:36:39.642Z,96554.83
2022-11-01T20:39:10.306Z,96553.30
2022-11-01T20:41:41.016Z,96557.41
2022-11-01T20:44:08.846Z,96556.73
2022-11-01T20:46:36.650Z,96557.77
2022-11-01T20:49:04.551Z,96556.08
2022-11-01T20:51:32.493Z,96555.48
2022-11-01T20:54:00.389Z,96562.41
2022-11-01T20:56:28.377Z,96558.12
2022-11-01T20:58:56.299Z,96560.76
2022-11-01T21:01:24.439Z,96566.38
2022-11-01T21:03:53.349Z,96567.52
2022-11-01T21:06:21.854Z,96569.00
2022-11-01T21:08:49.818Z,96567.70
2022-11-01T21:11:24.394Z,96566.70
2022-11-01T21:13:52.504Z,96572.32
2022-11-01T21:16:22.485Z,96571.11
2022-11-01T21:18:52.545Z,96575.98
2022-11-01T21:21:20.488Z,96578.58
2022-11-01T21:23:48.526Z,96576.87
2022-11-01T21:26:18.315Z,96581.73
2022-11-01T21:28:46.134Z,96581.38
2022-11-01T21:31:13.934Z,96581.23
2022-11-01T21:33:54.068Z,96581.85
2022-11-01T21:36:21.957Z,96583.41
2022-11-01T21:38:53.977Z,96585.84
2022-11-01T21:41:21.768Z,96580.55
2022-11-01T21:43:49.700Z,96584.08
2022-11-01T21:46:20.173Z,96581.09
2022-11-01T21:48:49.181Z,96581.98
2022-11-01T21:51:17.397Z,96592.90
2022-11-01T21:53:45.315Z,96591.02
2022-11-01T21:56:13.137Z,96587.09
2022-11-01T21:58:40.981Z,96585.85
2022-11-01T22:01:09.028Z,96581.24
2022-11-01T22:03:37.362Z,96584.14
2022-11-01T22:06:05.294Z,96584.90
2022-11-01T22:08:33.274Z,96584.82
2022-11-01T22:11:01.235Z,96582.52
2022-11-01T22:13:29.175Z,96581.19
2022-11-01T22:15:57.181Z,96579.55
2022-11-01T22:18:25.421Z,96578.55
2022-11-01T22:20:53.446Z,96579.13
2022-11-01T22:23:21.340Z,96577.63
2022-11-01T22:25:49.162Z,96575.96
2022-11-01T22:28:17.229Z,96576.06
2022-11-01T22:30:45.743Z,96575.37
2022-11-01T22:33:13.847Z,96576.11
2022-11-01T22:35:41.704Z,96576.48
2022-11-01T22:38:19.057Z,96577.58
2022-11-01T22:40:50.431Z,96577.25
2022-11-01T22:43:19.208Z,96576.33
2022-11-01T22:45:47.139Z,96575.77
2022-11-01T22:48:17.728Z,96581.54
2022-11-01T22:50:45.829Z,96574.29
2022-11-01T22:53:18.885Z,96579.33
2022-11-01T22:55:48.379Z,96579.50
2022-11-01T22:58:32.125Z,96576.45
2022-11-01T23:01:00.866Z,96580.08
2022-11-01T23:03:31.253Z,96576.84
2022-11-01T23:06:00.493Z,96571.86
2022-11-01T23:08:29.856Z,96572.02
2022-11-01T23:10:58.152Z,96571.30
2022-11-01T23:13:48.875Z,96577.02
2022-11-01T23:16:16.764Z,96574.55
2022-11-01T23:18:44.616Z,96583.98
2022-11-01T23:21:12.835Z,96581.98
2022-11-01T23:23:41.870Z,96583.55
2022-11-01T23:26:10.124Z,96586.56
2022-11-01T23:28:48.712Z,96585.80
2022-11-01T23:31:17.521Z,96581.27
2022-11-01T23:33:46.674Z,96579.05
2022-11-01T23:36:17.987Z,96578.21
2022-11-01T23:39:00.309Z,96582.15
2022-11-01T23:41:33.193Z,96581.61
2022-11-01T23:44:03.403Z,96581.72
2022-11-01T23:46:31.294Z,96578.41
2022-11-01T23:49:09.870Z,96584.89
2022-11-01T23:51:38.223Z,96586.02
2022-11-01T23:54:06.738Z,96581.52
2022-11-01T23:56:34.668Z,96577.95
2022-11-01T23:59:04.372Z,96574.25
